createdAt,value
2023-12-17T00:00:05.149Z,11.24
2023-12-17T00:02:32.067Z,11.14
2023-12-17T00:04:59.405Z,10.75
2023-12-17T00:07:26.212Z,10.26
2023-12-17T00:09:53.353Z,10.38
2023-12-17T00:12:20.324Z,10.34
2023-12-17T00:14:47.266Z,10.23
2023-12-17T00:17:14.657Z,9.66
2023-12-17T00:19:42.519Z,9.80
2023-12-17T00:22:09.889Z,10.21
2023-12-17T00:24:36.793Z,9.98
2023-12-17T00:27:04.882Z,9.73
2023-12-17T00:29:31.795Z,9.42
2023-12-17T00:32:01.146Z,9.54
2023-12-17T00:34:29.034Z,9.31
2023-12-17T00:36:56.031Z,9.23
2023-12-17T00:39:22.915Z,9.42
2023-12-17T00:42:06.694Z,8.96
2023-12-17T00:44:33.872Z,9.15
2023-12-17T00:47:01.096Z,9.62
2023-12-17T00:49:28.209Z,9.76
2023-12-17T00:51:55.099Z,9.44
2023-12-17T00:54:23.253Z,9.26
2023-12-17T00:56:50.235Z,9.63
2023-12-17T00:59:17.432Z,9.24
2023-12-17T01:01:44.585Z,9.83
2023-12-17T01:04:11.324Z,9.18
2023-12-17T01:06:38.182Z,8.82
2023-12-17T01:09:05.128Z,9.00
2023-12-17T01:11:33.245Z,8.83
2023-12-17T01:17:55.418Z,9.68
2023-12-17T01:20:22.305Z,9.94
2023-12-17T01:22:49.275Z,10.57
2023-12-17T01:25:16.189Z,9.54
2023-12-17T01:27:43.054Z,9.73
2023-12-17T01:30:14.890Z,10.28
2023-12-17T01:32:42.437Z,9.92
2023-12-17T01:35:09.240Z,10.13
2023-12-17T01:37:36.280Z,10.02
2023-12-17T01:40:03.354Z,9.53
2023-12-17T01:42:31.758Z,9.38
2023-12-17T01:44:58.989Z,8.78
2023-12-17T01:47:26.114Z,8.70
2023-12-17T01:49:53.131Z,9.07
2023-12-17T01:52:20.002Z,8.94
2023-12-17T01:54:48.349Z,8.85
2023-12-17T01:57:15.281Z,8.61
2023-12-17T01:59:42.063Z,8.87
2023-12-17T02:02:11.626Z,9.28
2023-12-17T02:04:39.486Z,9.60
2023-12-17T02:07:07.510Z,10.70
2023-12-17T02:09:34.349Z,10.55
2023-12-17T02:12:01.322Z,10.69
2023-12-17T02:14:28.543Z,10.77
2023-12-17T02:16:55.313Z,11.51
2023-12-17T02:19:22.365Z,12.94
2023-12-17T02:25:43.773Z,13.42
2023-12-17T02:28:10.636Z,14.09
2023-12-17T02:30:38.664Z,13.39
2023-12-17T02:36:59.624Z,16.59
2023-12-17T02:39:26.696Z,16.81
2023-12-17T02:41:53.561Z,17.04
2023-12-17T02:44:21.277Z,17.60
2023-12-17T02:46:49.277Z,16.90
2023-12-17T02:49:16.798Z,16.65
2023-12-17T02:51:44.434Z,17.76
2023-12-17T02:54:14.762Z,18.01
2023-12-17T02:56:42.127Z,18.41
2023-12-17T02:59:15.916Z,17.99
2023-12-17T03:01:44.570Z,17.77
2023-12-17T03:04:14.867Z,18.42
2023-12-17T03:06:44.465Z,19.77
2023-12-17T03:09:11.646Z,20.76
2023-12-17T03:11:39.903Z,20.90
2023-12-17T03:14:09.609Z,22.21
2023-12-17T03:16:36.461Z,21.86
2023-12-17T03:19:03.696Z,21.82
2023-12-17T03:21:41.308Z,22.07
2023-12-17T03:24:08.381Z,21.90
2023-12-17T03:26:40.503Z,21.87
2023-12-17T03:29:21.702Z,21.68
2023-12-17T03:31:48.754Z,21.32
2023-12-17T03:34:15.973Z,21.62
2023-12-17T03:36:42.776Z,20.75
2023-12-17T03:39:10.471Z,21.52
2023-12-17T03:41:37.445Z,20.40
2023-12-17T03:44:05.369Z,19.94
2023-12-17T03:46:32.198Z,19.69
2023-12-17T03:49:00.174Z,19.42
2023-12-17T03:51:27.434Z,19.34
2023-12-17T03:53:55.915Z,19.74
2023-12-17T03:56:22.724Z,19.48
2023-12-17T03:58:50.701Z,18.57
2023-12-17T04:01:17.909Z,18.81
2023-12-17T04:03:45.130Z,19.08
2023-12-17T04:06:13.689Z,18.70
2023-12-17T04:08:43.554Z,18.50
2023-12-17T04:11:10.788Z,18.34
2023-12-17T04:13:58.874Z,18.36
2023-12-17T04:17:03.340Z,17.43
2023-12-17T04:19:30.379Z,18.54
2023-12-17T04:21:58.874Z,18.87
2023-12-17T04:24:25.720Z,19.60
2023-12-17T04:26:52.631Z,19.63
2023-12-17T04:29:20.670Z,19.12
2023-12-17T04:31:48.383Z,18.13
2023-12-17T04:34:15.651Z,19.17
2023-12-17T04:36:43.877Z,19.25
2023-12-17T04:39:10.866Z,19.75
2023-12-17T04:41:38.150Z,19.45
2023-12-17T04:44:04.967Z,19.49
2023-12-17T04:46:31.750Z,18.44
2023-12-17T04:49:35.549Z,19.01
2023-12-17T04:52:02.538Z,18.76
2023-12-17T04:54:29.795Z,20.50
2023-12-17T04:56:56.709Z,19.76
2023-12-17T04:59:23.896Z,18.80
2023-12-17T05:01:51.859Z,18.23
2023-12-17T05:04:20.132Z,17.97
2023-12-17T05:06:48.095Z,17.94
2023-12-17T05:09:16.034Z,18.29
2023-12-17T05:11:43.208Z,19.09
2023-12-17T05:14:10.279Z,19.13
2023-12-17T05:16:37.163Z,19.19
2023-12-17T05:19:05.405Z,19.44
2023-12-17T05:21:32.450Z,19.50
2023-12-17T05:23:59.273Z,19.85
2023-12-17T05:26:26.196Z,19.26
2023-12-17T05:28:52.974Z,19.24
2023-12-17T05:31:20.820Z,20.33
2023-12-17T05:33:49.185Z,19.81
2023-12-17T05:36:17.578Z,19.63
2023-12-17T05:38:47.373Z,20.28
2023-12-17T05:41:14.952Z,20.18
2023-12-17T05:43:41.756Z,19.47
2023-12-17T05:46:08.995Z,19.54
2023-12-17T05:48:37.133Z,19.38
2023-12-17T05:51:08.319Z,20.11
2023-12-17T05:53:41.440Z,20.15
2023-12-17T05:56:14.310Z,20.00
2023-12-17T05:58:41.248Z,20.44
2023-12-17T06:01:10.323Z,20.44
2023-12-17T06:03:38.902Z,19.90
2023-12-17T06:06:07.866Z,20.27
2023-12-17T06:08:35.561Z,20.70
2023-12-17T06:11:02.418Z,20.45
2023-12-17T06:13:29.432Z,20.42
2023-12-17T06:15:56.433Z,21.25
2023-12-17T06:18:23.495Z,21.26
2023-12-17T06:20:50.396Z,20.68
2023-12-17T06:23:17.374Z,20.97
2023-12-17T06:25:45.484Z,20.98
2023-12-17T06:28:12.226Z,20.27
2023-12-17T06:30:40.569Z,19.77
2023-12-17T06:33:07.480Z,19.82
2023-12-17T06:35:34.420Z,19.10
2023-12-17T06:38:01.391Z,19.63
2023-12-17T06:40:29.467Z,20.35
2023-12-17T06:42:56.330Z,19.00
2023-12-17T06:45:24.389Z,18.73
2023-12-17T06:47:51.325Z,18.35
2023-12-17T06:50:18.283Z,18.38
2023-12-17T06:52:45.522Z,18.37
2023-12-17T06:55:12.336Z,18.67
2023-12-17T06:57:39.715Z,19.17
2023-12-17T07:00:09.249Z,18.83
2023-12-17T07:02:37.702Z,18.82
2023-12-17T07:05:04.839Z,19.11
2023-12-17T07:07:31.987Z,19.14
2023-12-17T07:09:59.843Z,18.73
2023-12-17T07:12:26.743Z,19.16
2023-12-17T07:14:53.798Z,19.72
2023-12-17T07:17:20.713Z,19.75
2023-12-17T07:23:41.043Z,20.41
2023-12-17T07:26:07.804Z,19.83
2023-12-17T07:28:35.005Z,20.40
2023-12-17T07:31:02.258Z,20.55
2023-12-17T07:33:29.256Z,20.37
2023-12-17T07:35:56.137Z,20.62
2023-12-17T07:38:22.955Z,21.23
2023-12-17T07:40:49.997Z,21.19
2023-12-17T07:43:17.128Z,20.95
2023-12-17T07:45:43.943Z,20.63
2023-12-17T07:48:10.971Z,19.97
2023-12-17T07:50:37.996Z,19.88
2023-12-17T07:53:04.887Z,19.89
2023-12-17T07:55:31.662Z,20.64
2023-12-17T07:57:58.515Z,20.64
2023-12-17T08:00:25.372Z,20.35
2023-12-17T08:02:52.663Z,20.21
2023-12-17T08:05:20.563Z,20.37
2023-12-17T08:07:47.454Z,20.13
2023-12-17T08:10:14.247Z,20.42
2023-12-17T08:12:41.598Z,20.24
2023-12-17T08:15:10.075Z,19.59
2023-12-17T08:17:39.056Z,20.36
2023-12-17T08:20:07.258Z,20.61
2023-12-17T08:22:34.054Z,20.39
2023-12-17T08:25:01.938Z,19.74
2023-12-17T08:27:28.906Z,20.44
2023-12-17T08:29:56.101Z,19.94
2023-12-17T08:32:23.393Z,19.93
2023-12-17T08:34:50.307Z,18.64
2023-12-17T08:37:18.444Z,18.42
2023-12-17T08:39:45.269Z,20.16
2023-12-17T08:42:12.449Z,19.96
2023-12-17T08:44:40.429Z,20.04
2023-12-17T08:47:07.392Z,19.75
2023-12-17T08:49:34.823Z,19.91
2023-12-17T08:52:01.841Z,20.32
2023-12-17T08:54:28.794Z,20.13
2023-12-17T08:56:55.653Z,20.13
2023-12-17T08:59:33.261Z,20.03
2023-12-17T09:02:03.071Z,20.17
2023-12-17T09:04:31.301Z,19.94
2023-12-17T09:06:59.640Z,19.85
2023-12-17T09:09:26.504Z,20.07
2023-12-17T09:12:20.181Z,19.77
2023-12-17T09:14:47.116Z,20.57
2023-12-17T09:17:13.958Z,19.38
2023-12-17T09:19:40.890Z,19.73
2023-12-17T09:22:10.026Z,18.80
2023-12-17T09:24:36.995Z,19.05
2023-12-17T09:27:03.934Z,19.19
2023-12-17T09:29:31.874Z,20.08
2023-12-17T09:32:00.524Z,19.93
2023-12-17T09:34:39.980Z,19.57
2023-12-17T09:37:07.907Z,19.83
2023-12-17T09:39:39.918Z,19.37
2023-12-17T09:42:27.169Z,19.88
2023-12-17T09:44:56.895Z,20.19
2023-12-17T09:47:25.460Z,19.56
2023-12-17T09:49:52.476Z,20.50
2023-12-17T09:52:19.935Z,20.14
2023-12-17T09:54:49.564Z,20.10
2023-12-17T09:57:18.062Z,19.82
2023-12-17T09:59:45.407Z,19.39
2023-12-17T10:02:15.772Z,19.91
2023-12-17T10:04:48.403Z,20.87
2023-12-17T10:07:19.534Z,21.38
2023-12-17T10:09:46.364Z,20.37
2023-12-17T10:12:15.532Z,20.06
2023-12-17T10:14:43.508Z,20.48
2023-12-17T10:17:12.744Z,20.13
2023-12-17T10:19:39.762Z,20.02
2023-12-17T10:22:07.380Z,20.55
2023-12-17T10:24:37.690Z,20.95
2023-12-17T10:27:19.046Z,20.16
2023-12-17T10:29:50.281Z,20.06
2023-12-17T10:32:20.636Z,20.92
2023-12-17T10:34:49.902Z,20.59
2023-12-17T10:37:21.569Z,21.30
2023-12-17T10:39:48.816Z,22.01
2023-12-17T10:42:20.255Z,22.48
2023-12-17T10:44:47.542Z,20.17
2023-12-17T10:47:16.462Z,20.21
2023-12-17T10:49:44.244Z,20.30
2023-12-17T10:52:11.036Z,20.19
2023-12-17T10:54:41.158Z,21.00
2023-12-17T10:57:10.450Z,20.64
2023-12-17T10:59:40.978Z,20.21
2023-12-17T11:02:08.865Z,20.66
2023-12-17T11:04:37.174Z,19.74
2023-12-17T11:07:04.074Z,19.62
2023-12-17T11:09:30.896Z,19.36
2023-12-17T11:11:57.890Z,20.06
2023-12-17T11:14:39.383Z,19.64
2023-12-17T11:17:15.086Z,20.91
2023-12-17T11:19:59.010Z,20.60
2023-12-17T11:22:25.991Z,19.93
2023-12-17T11:24:59.729Z,20.03
2023-12-17T11:27:26.952Z,20.25
2023-12-17T11:29:56.422Z,19.82
2023-12-17T11:32:35.112Z,20.00
2023-12-17T11:35:01.913Z,21.31
2023-12-17T11:37:29.372Z,21.02
2023-12-17T11:39:56.131Z,21.96
2023-12-17T11:42:23.023Z,23.67
2023-12-17T11:44:51.084Z,23.31
2023-12-17T11:47:25.189Z,20.93
2023-12-17T11:49:52.080Z,21.81
2023-12-17T11:52:18.871Z,21.61
2023-12-17T11:54:45.696Z,20.88
2023-12-17T11:57:30.754Z,22.00
2023-12-17T11:59:58.070Z,22.57
2023-12-17T12:02:25.828Z,21.76
2023-12-17T12:04:53.681Z,22.99
2023-12-17T12:07:21.574Z,23.48
2023-12-17T12:09:49.322Z,22.43
2023-12-17T12:12:25.139Z,22.07
2023-12-17T12:14:52.296Z,22.28
2023-12-17T12:17:37.373Z,22.17
2023-12-17T12:20:08.935Z,22.57
2023-12-17T12:22:45.366Z,21.23
2023-12-17T12:25:18.945Z,19.25
2023-12-17T12:28:23.534Z,19.59
2023-12-17T12:30:51.563Z,19.94
2023-12-17T12:33:18.902Z,20.35
2023-12-17T12:35:46.616Z,19.94
2023-12-17T12:38:23.701Z,20.79
2023-12-17T12:40:51.255Z,21.87
2023-12-17T12:43:18.318Z,22.09
2023-12-17T12:45:52.444Z,21.05
2023-12-17T12:48:26.121Z,21.65
2023-12-17T12:50:53.190Z,20.56
2023-12-17T12:53:26.041Z,19.62
2023-12-17T12:55:54.129Z,20.08
2023-12-17T12:58:21.067Z,20.31
2023-12-17T13:00:48.746Z,20.35
2023-12-17T13:03:16.453Z,20.22
2023-12-17T13:05:43.808Z,19.50
2023-12-17T13:08:10.777Z,20.05
2023-12-17T13:10:37.615Z,19.87
2023-12-17T13:13:06.194Z,20.20
2023-12-17T13:15:35.383Z,20.61
2023-12-17T13:18:04.537Z,19.50
2023-12-17T13:20:58.542Z,20.07
2023-12-17T13:23:25.817Z,20.61
2023-12-17T13:25:53.392Z,21.60
2023-12-17T13:28:21.096Z,21.75
2023-12-17T13:30:48.173Z,21.97
2023-12-17T13:33:17.970Z,21.70
2023-12-17T13:35:45.160Z,22.06
2023-12-17T13:38:12.879Z,21.91
2023-12-17T13:40:41.320Z,21.94
2023-12-17T13:43:08.221Z,20.93
2023-12-17T13:45:35.149Z,20.92
2023-12-17T13:48:01.989Z,19.65
2023-12-17T13:50:29.060Z,19.55
2023-12-17T13:52:56.108Z,20.30
2023-12-17T13:55:23.016Z,20.75
2023-12-17T13:57:50.056Z,21.10
2023-12-17T14:00:17.940Z,21.39
2023-12-17T14:02:44.923Z,20.99
2023-12-17T14:05:14.339Z,21.29
2023-12-17T14:07:42.092Z,20.78
2023-12-17T14:10:09.106Z,20.95
2023-12-17T14:12:36.165Z,21.01
2023-12-17T14:15:03.363Z,20.72
2023-12-17T14:17:30.272Z,20.78
2023-12-17T14:19:57.121Z,20.28
2023-12-17T14:22:24.268Z,20.59
2023-12-17T14:24:52.349Z,19.46
2023-12-17T14:27:19.832Z,20.46
2023-12-17T14:29:47.398Z,20.56
2023-12-17T14:32:17.371Z,20.86
2023-12-17T14:34:59.297Z,20.90
2023-12-17T14:37:26.109Z,20.71
2023-12-17T14:39:52.929Z,21.04
2023-12-17T14:42:19.997Z,22.28
2023-12-17T14:44:49.659Z,22.06
2023-12-17T14:47:16.893Z,20.72
2023-12-17T14:49:44.299Z,19.87
2023-12-17T14:52:12.359Z,19.98
2023-12-17T14:54:39.498Z,20.76
2023-12-17T14:57:06.499Z,20.20
2023-12-17T14:59:33.879Z,19.71
2023-12-17T15:02:00.855Z,20.86
2023-12-17T15:04:28.056Z,21.73
2023-12-17T15:06:55.308Z,20.70
2023-12-17T15:09:23.099Z,22.16
2023-12-17T15:11:50.593Z,23.81
2023-12-17T15:14:20.119Z,22.23
2023-12-17T15:16:48.626Z,22.55
2023-12-17T15:19:17.951Z,22.12
2023-12-17T15:21:53.814Z,23.41
2023-12-17T15:24:20.872Z,24.69
2023-12-17T15:27:30.194Z,24.19
2023-12-17T15:29:57.241Z,22.35
2023-12-17T15:32:24.465Z,23.13
2023-12-17T15:34:58.270Z,24.81
2023-12-17T15:37:25.641Z,23.63
2023-12-17T15:39:52.717Z,24.37
2023-12-17T15:42:19.579Z,23.81
2023-12-17T15:44:46.774Z,25.01
2023-12-17T15:47:13.652Z,25.10
2023-12-17T15:49:40.584Z,24.84
2023-12-17T15:52:09.020Z,23.39
2023-12-17T15:54:35.839Z,23.41
2023-12-17T15:57:02.968Z,22.78
2023-12-17T15:59:30.413Z,21.62
2023-12-17T16:02:01.550Z,21.73
2023-12-17T16:04:28.432Z,21.64
2023-12-17T16:06:55.264Z,21.68
2023-12-17T16:09:23.904Z,22.18
2023-12-17T16:11:53.759Z,26.01
2023-12-17T16:14:20.640Z,23.88
2023-12-17T16:16:48.621Z,24.00
2023-12-17T16:19:27.807Z,26.73
2023-12-17T16:21:55.549Z,24.24
2023-12-17T16:24:22.437Z,23.47
2023-12-17T16:26:50.630Z,23.12
2023-12-17T16:29:17.517Z,24.42
2023-12-17T16:31:46.364Z,24.86
2023-12-17T16:34:13.548Z,23.87
2023-12-17T16:36:41.690Z,25.19
2023-12-17T16:39:08.773Z,25.44
2023-12-17T16:41:36.252Z,25.20
2023-12-17T16:44:05.981Z,24.94
2023-12-17T16:46:33.136Z,25.60
2023-12-17T16:52:28.241Z,23.46
2023-12-17T16:54:56.125Z,25.56
2023-12-17T16:57:23.016Z,25.37
2023-12-17T16:59:49.963Z,26.15
2023-12-17T17:02:16.828Z,25.39
2023-12-17T17:04:44.065Z,26.02
2023-12-17T17:07:10.866Z,25.09
2023-12-17T17:09:38.226Z,25.74
2023-12-17T17:12:05.348Z,24.73
2023-12-17T17:14:32.216Z,24.09
2023-12-17T17:16:59.139Z,25.56
2023-12-17T17:19:26.004Z,24.25
2023-12-17T17:21:56.013Z,24.29
2023-12-17T17:24:22.946Z,24.08
2023-12-17T17:26:49.800Z,24.06
2023-12-17T17:29:16.939Z,24.16
2023-12-17T17:32:03.814Z,23.67
2023-12-17T17:34:49.920Z,23.47
2023-12-17T17:37:36.281Z,22.99
2023-12-17T17:40:04.901Z,23.92
2023-12-17T17:42:31.813Z,25.52
2023-12-17T17:44:58.660Z,26.26
2023-12-17T17:47:25.532Z,24.85
2023-12-17T17:49:52.403Z,25.97
2023-12-17T17:52:19.340Z,25.86
2023-12-17T17:54:49.782Z,26.29
2023-12-17T17:57:17.879Z,27.06
2023-12-17T17:59:45.095Z,26.40
2023-12-17T18:02:12.279Z,24.84
2023-12-17T18:04:39.482Z,24.71
2023-12-17T18:07:06.321Z,26.28
2023-12-17T18:09:34.079Z,25.80
2023-12-17T18:12:01.178Z,26.48
2023-12-17T18:14:28.005Z,25.71
2023-12-17T18:16:54.841Z,24.66
2023-12-17T18:19:21.742Z,24.84
2023-12-17T18:21:48.517Z,25.40
2023-12-17T18:24:15.365Z,24.99
2023-12-17T18:26:43.877Z,25.26
2023-12-17T18:29:11.217Z,25.37
2023-12-17T18:31:38.073Z,25.36
2023-12-17T18:34:04.956Z,25.40
2023-12-17T18:36:32.288Z,26.11
2023-12-17T18:38:59.154Z,26.76
2023-12-17T18:41:26.513Z,27.26
2023-12-17T18:43:53.269Z,25.98
2023-12-17T18:46:21.034Z,25.87
2023-12-17T18:48:48.954Z,24.97
2023-12-17T18:51:17.023Z,25.52
2023-12-17T18:53:44.104Z,26.23
2023-12-17T18:56:11.518Z,26.21
2023-12-17T18:58:38.689Z,24.90
2023-12-17T19:01:05.775Z,24.64
2023-12-17T19:03:32.712Z,25.01
2023-12-17T19:05:59.568Z,23.47
2023-12-17T19:08:26.347Z,24.45
2023-12-17T19:10:54.040Z,23.74
2023-12-17T19:13:21.213Z,23.46
2023-12-17T19:15:48.151Z,22.91
2023-12-17T19:18:16.549Z,22.45
2023-12-17T19:20:43.667Z,21.66
2023-12-17T19:23:10.957Z,21.07
2023-12-17T19:25:37.831Z,20.98
2023-12-17T19:28:04.960Z,20.15
2023-12-17T19:30:33.225Z,20.08
2023-12-17T19:33:00.259Z,20.54
2023-12-17T19:35:27.537Z,20.18
2023-12-17T19:37:54.657Z,20.21
2023-12-17T19:40:21.563Z,19.84
2023-12-17T19:42:48.415Z,20.68
2023-12-17T19:45:15.805Z,20.19
2023-12-17T19:47:42.774Z,20.33
2023-12-17T19:50:10.203Z,20.67
2023-12-17T19:52:38.115Z,21.00
2023-12-17T19:55:07.258Z,21.44
2023-12-17T19:57:34.120Z,21.65
2023-12-17T20:00:01.167Z,21.70
2023-12-17T20:02:28.075Z,22.71
2023-12-17T20:04:55.319Z,21.85
2023-12-17T20:07:22.227Z,22.27
2023-12-17T20:09:49.787Z,23.44
2023-12-17T20:12:16.703Z,22.96
2023-12-17T20:14:43.735Z,22.40
2023-12-17T20:17:10.508Z,25.48
2023-12-17T20:19:38.558Z,28.45
2023-12-17T20:22:05.514Z,28.48
2023-12-17T20:24:32.381Z,25.70
2023-12-17T20:26:59.328Z,24.17
2023-12-17T20:29:26.091Z,22.43
2023-12-17T20:32:11.591Z,23.45
2023-12-17T20:34:39.717Z,24.29
2023-12-17T20:37:06.563Z,22.70
2023-12-17T20:39:33.980Z,22.42
2023-12-17T20:42:00.822Z,21.98
2023-12-17T20:44:28.199Z,23.82
2023-12-17T20:46:55.497Z,24.61
2023-12-17T20:49:22.713Z,24.38
2023-12-17T20:51:49.594Z,25.22
2023-12-17T20:54:16.873Z,24.67
2023-12-17T20:56:43.916Z,24.58
2023-12-17T20:59:11.241Z,24.23
2023-12-17T21:01:38.060Z,23.90
2023-12-17T21:04:05.973Z,22.89
2023-12-17T21:06:32.889Z,23.00
2023-12-17T21:09:01.526Z,22.70
2023-12-17T21:11:29.401Z,22.91
2023-12-17T21:17:18.420Z,24.20
2023-12-17T21:19:46.732Z,24.07
2023-12-17T21:22:14.019Z,24.21
2023-12-17T21:24:41.039Z,24.39
2023-12-17T21:27:20.998Z,24.93
2023-12-17T21:29:48.078Z,24.48
2023-12-17T21:32:16.230Z,25.00
2023-12-17T21:34:44.119Z,25.82
2023-12-17T21:37:11.016Z,26.30
2023-12-17T21:39:38.160Z,26.18
2023-12-17T21:42:06.319Z,25.47
2023-12-17T21:44:33.486Z,24.77
2023-12-17T21:47:00.378Z,24.79
2023-12-17T21:49:28.111Z,24.12
2023-12-17T21:52:06.251Z,23.99
2023-12-17T21:54:34.608Z,23.97
2023-12-17T21:57:17.257Z,24.15
2023-12-17T21:59:46.957Z,24.45
2023-12-17T22:02:13.904Z,24.59
2023-12-17T22:04:46.737Z,24.43
2023-12-17T22:07:13.886Z,24.50
2023-12-17T22:09:40.889Z,24.81
2023-12-17T22:12:08.073Z,25.49
2023-12-17T22:14:35.301Z,24.95
2023-12-17T22:17:02.538Z,25.19
2023-12-17T22:19:29.877Z,24.59
2023-12-17T22:21:57.381Z,24.12
2023-12-17T22:24:24.314Z,24.04
2023-12-17T22:26:51.786Z,25.05
2023-12-17T22:29:19.719Z,22.89
2023-12-17T22:31:46.786Z,21.63
2023-12-17T22:34:13.845Z,21.85
2023-12-17T22:36:41.123Z,21.83
2023-12-17T22:39:09.194Z,21.98
2023-12-17T22:41:38.778Z,22.06
2023-12-17T22:44:08.405Z,22.16
2023-12-17T22:47:13.362Z,21.30
2023-12-17T22:49:40.488Z,21.53
2023-12-17T22:52:08.341Z,20.61
2023-12-17T22:54:35.965Z,22.84
2023-12-17T22:57:03.531Z,22.09
2023-12-17T22:59:33.968Z,22.80
2023-12-17T23:02:00.788Z,22.66
2023-12-17T23:04:28.781Z,21.96
2023-12-17T23:06:56.231Z,22.83
2023-12-17T23:09:23.630Z,23.21
2023-12-17T23:11:51.607Z,23.77
2023-12-17T23:14:18.722Z,23.25
2023-12-17T23:16:45.636Z,22.08
2023-12-17T23:19:13.136Z,22.62
2023-12-17T23:21:40.026Z,23.42
2023-12-17T23:24:10.015Z,23.35
2023-12-17T23:26:49.319Z,23.15
2023-12-17T23:29:16.343Z,25.01
2023-12-17T23:31:44.936Z,23.53
2023-12-17T23:34:12.151Z,23.95
2023-12-17T23:36:39.555Z,23.52
2023-12-17T23:39:06.443Z,24.20
2023-12-17T23:41:33.348Z,26.55
2023-12-17T23:44:00.202Z,24.92
2023-12-17T23:46:27.012Z,24.18
2023-12-17T23:48:54.924Z,23.61
2023-12-17T23:51:22.156Z,23.78
2023-12-17T23:53:48.975Z,23.85
2023-12-17T23:56:18.554Z,23.04
2023-12-17T23:58:45.837Z,22.93
